sensor_id;sensor_type;location;lat;lon;timestamp;temperature;humidity
66710;DHT22;53624;0.000;0.000;2023-12-04T00:01:45;5.80;99.90
66710;DHT22;53624;0.000;0.000;2023-12-04T00:04:12;5.80;99.90
66710;DHT22;53624;0.000;0.000;2023-12-04T00:06:41;5.80;99.90
66710;DHT22;53624;0.000;0.000;2023-12-04T00:09:09;5.80;99.90
66710;DHT22;53624;0.000;0.000;2023-12-04T00:11:36;5.80;99.90
66710;DHT22;53624;0.000;0.000;2023-12-04T00:14:03;5.80;99.90
66710;DHT22;53624;0.000;0.000;2023-12-04T00:16:32;5.70;99.90
66710;DHT22;53624;0.000;0.000;2023-12-04T00:19:00;5.80;99.90
66710;DHT22;53624;0.000;0.000;2023-12-04T00:21:27;5.80;99.90
66710;DHT22;53624;0.000;0.000;2023-12-04T00:23:55;5.70;99.90
66710;DHT22;53624;0.000;0.000;2023-12-04T00:26:22;5.70;99.90
66710;DHT22;53624;0.000;0.000;2023-12-04T00:28:50;5.70;99.90
66710;DHT22;53624;0.000;0.000;2023-12-04T00:31:17;5.70;99.90
66710;DHT22;53624;0.000;0.000;2023-12-04T00:33:44;5.70;99.90
66710;DHT22;53624;0.000;0.000;2023-12-04T00:36:11;5.70;99.90
66710;DHT22;53624;0.000;0.000;2023-12-04T00:38:39;5.70;99.90
66710;DHT22;53624;0.000;0.000;2023-12-04T00:41:07;5.70;99.90
66710;DHT22;53624;0.000;0.000;2023-12-04T00:43:34;5.70;99.90
66710;DHT22;53624;0.000;0.000;2023-12-04T00:46:01;5.70;99.90
66710;DHT22;53624;0.000;0.000;2023-12-04T00:48:29;5.70;99.90
66710;DHT22;53624;0.000;0.000;2023-12-04T00:50:57;5.60;99.90
66710;DHT22;53624;0.000;0.000;2023-12-04T00:53:24;5.60;99.90
66710;DHT22;53624;0.000;0.000;2023-12-04T00:55:51;5.70;99.90
66710;DHT22;53624;0.000;0.000;2023-12-04T00:58:20;5.70;99.90
66710;DHT22;53624;0.000;0.000;2023-12-04T01:00:47;5.60;99.90
66710;DHT22;53624;0.000;0.000;2023-12-04T01:03:17;5.60;99.90
66710;DHT22;53624;0.000;0.000;2023-12-04T01:05:44;5.60;99.90
66710;DHT22;53624;0.000;0.000;2023-12-04T01:08:11;5.60;99.90
66710;DHT22;53624;0.000;0.000;2023-12-04T01:10:39;5.60;99.90
66710;DHT22;53624;0.000;0.000;2023-12-04T01:13:06;5.60;99.90
66710;DHT22;53624;0.000;0.000;2023-12-04T01:15:34;5.60;99.90
66710;DHT22;53624;0.000;0.000;2023-12-04T01:18:02;5.60;99.90
66710;DHT22;53624;0.000;0.000;2023-12-04T01:20:29;5.60;99.90
66710;DHT22;53624;0.000;0.000;2023-12-04T01:22:59;5.60;99.90
66710;DHT22;53624;0.000;0.000;2023-12-04T01:25:26;5.60;99.90
66710;DHT22;53624;0.000;0.000;2023-12-04T01:27:53;5.60;99.90
66710;DHT22;53624;0.000;0.000;2023-12-04T01:30:20;5.60;99.90
66710;DHT22;53624;0.000;0.000;2023-12-04T01:32:49;5.60;99.90
66710;DHT22;53624;0.000;0.000;2023-12-04T01:35:16;5.60;99.90
66710;DHT22;53624;0.000;0.000;2023-12-04T01:37:43;5.60;99.90
66710;DHT22;53624;0.000;0.000;2023-12-04T01:40:11;5.60;99.90
66710;DHT22;53624;0.000;0.000;2023-12-04T01:42:38;5.60;99.90
66710;DHT22;53624;0.000;0.000;2023-12-04T01:45:05;5.60;99.90
66710;DHT22;53624;0.000;0.000;2023-12-04T01:47:33;5.60;99.90
66710;DHT22;53624;0.000;0.000;2023-12-04T01:50:01;5.60;99.90
66710;DHT22;53624;0.000;0.000;2023-12-04T01:52:30;5.60;99.90
66710;DHT22;53624;0.000;0.000;2023-12-04T01:54:57;5.60;99.90
66710;DHT22;53624;0.000;0.000;2023-12-04T01:57:24;5.60;99.90
66710;DHT22;53624;0.000;0.000;2023-12-04T01:59:52;5.60;99.90
66710;DHT22;53624;0.000;0.000;2023-12-04T02:02:19;5.60;99.90
66710;DHT22;53624;0.000;0.000;2023-12-04T02:04:47;5.60;99.90
66710;DHT22;53624;0.000;0.000;2023-12-04T02:07:15;5.60;99.90
66710;DHT22;53624;0.000;0.000;2023-12-04T02:09:42;5.60;99.90
66710;DHT22;53624;0.000;0.000;2023-12-04T02:12:10;5.60;99.90
66710;DHT22;53624;0.000;0.000;2023-12-04T02:14:37;5.60;99.90
66710;DHT22;53624;0.000;0.000;2023-12-04T02:17:05;5.60;99.90
66710;DHT22;53624;0.000;0.000;2023-12-04T02:19:32;5.60;99.90
66710;DHT22;53624;0.000;0.000;2023-12-04T02:21:59;5.60;99.90
66710;DHT22;53624;0.000;0.000;2023-12-04T02:24:28;5.60;99.90
66710;DHT22;53624;0.000;0.000;2023-12-04T02:26:58;5.60;99.90
66710;DHT22;53624;0.000;0.000;2023-12-04T02:29:27;5.60;99.90
66710;DHT22;53624;0.000;0.000;2023-12-04T02:31:56;5.60;99.90
66710;DHT22;53624;0.000;0.000;2023-12-04T02:34:24;5.60;99.90
66710;DHT22;53624;0.000;0.000;2023-12-04T02:36:51;5.60;99.90
66710;DHT22;53624;0.000;0.000;2023-12-04T02:39:19;5.60;99.90
66710;DHT22;53624;0.000;0.000;2023-12-04T02:41:48;5.60;99.90
66710;DHT22;53624;0.000;0.000;2023-12-04T02:44:15;5.60;99.90
66710;DHT22;53624;0.000;0.000;2023-12-04T02:46:42;5.60;99.90
66710;DHT22;53624;0.000;0.000;2023-12-04T02:49:10;5.60;99.90
66710;DHT22;53624;0.000;0.000;2023-12-04T02:51:39;5.60;99.90
66710;DHT22;53624;0.000;0.000;2023-12-04T02:54:07;5.60;99.90
66710;DHT22;53624;0.000;0.000;2023-12-04T02:56:34;5.60;99.90
66710;DHT22;53624;0.000;0.000;2023-12-04T02:59:02;5.60;99.90
66710;DHT22;53624;0.000;0.000;2023-12-04T03:01:29;5.60;99.90
66710;DHT22;53624;0.000;0.000;2023-12-04T03:03:57;5.60;99.90
66710;DHT22;53624;0.000;0.000;2023-12-04T03:06:24;5.60;99.90
66710;DHT22;53624;0.000;0.000;2023-12-04T03:08:51;5.60;99.90
66710;DHT22;53624;0.000;0.000;2023-12-04T03:11:18;5.60;99.90
66710;DHT22;53624;0.000;0.000;2023-12-04T03:13:45;5.60;99.90
66710;DHT22;53624;0.000;0.000;2023-12-04T03:16:17;5.60;99.90
66710;DHT22;53624;0.000;0.000;2023-12-04T03:18:44;5.60;99.90
66710;DHT22;53624;0.000;0.000;2023-12-04T03:21:12;5.60;99.90
66710;DHT22;53624;0.000;0.000;2023-12-04T03:23:39;5.60;99.90
66710;DHT22;53624;0.000;0.000;2023-12-04T03:26:06;5.60;99.90
66710;DHT22;53624;0.000;0.000;2023-12-04T03:28:33;5.60;99.90
66710;DHT22;53624;0.000;0.000;2023-12-04T03:31:01;5.60;99.90
66710;DHT22;53624;0.000;0.000;2023-12-04T03:33:30;5.60;99.90
66710;DHT22;53624;0.000;0.000;2023-12-04T03:35:58;5.60;99.90
66710;DHT22;53624;0.000;0.000;2023-12-04T03:38:25;5.60;99.90
66710;DHT22;53624;0.000;0.000;2023-12-04T03:40:53;5.60;99.90
66710;DHT22;53624;0.000;0.000;2023-12-04T03:43:20;5.60;99.90
66710;DHT22;53624;0.000;0.000;2023-12-04T03:45:47;5.60;99.90
66710;DHT22;53624;0.000;0.000;2023-12-04T03:48:14;5.60;99.90
66710;DHT22;53624;0.000;0.000;2023-12-04T03:50:43;5.60;99.90
66710;DHT22;53624;0.000;0.000;2023-12-04T03:53:10;5.60;99.90
66710;DHT22;53624;0.000;0.000;2023-12-04T03:55:37;5.60;99.90
66710;DHT22;53624;0.000;0.000;2023-12-04T03:58:04;5.60;99.90
66710;DHT22;53624;0.000;0.000;2023-12-04T04:00:31;5.60;99.90
66710;DHT22;53624;0.000;0.000;2023-12-04T04:02:59;5.60;99.90
66710;DHT22;53624;0.000;0.000;2023-12-04T04:05:26;5.60;99.90
66710;DHT22;53624;0.000;0.000;2023-12-04T04:07:55;5.60;99.90
66710;DHT22;53624;0.000;0.000;2023-12-04T04:10:22;5.60;99.90
66710;DHT22;53624;0.000;0.000;2023-12-04T04:12:49;5.60;99.90
66710;DHT22;53624;0.000;0.000;2023-12-04T04:15:16;5.60;99.90
66710;DHT22;53624;0.000;0.000;2023-12-04T04:17:43;5.60;99.90
66710;DHT22;53624;0.000;0.000;2023-12-04T04:20:11;5.60;99.90
66710;DHT22;53624;0.000;0.000;2023-12-04T04:22:38;5.60;99.90
66710;DHT22;53624;0.000;0.000;2023-12-04T04:25:08;5.60;99.90
66710;DHT22;53624;0.000;0.000;2023-12-04T04:27:35;5.60;99.90
66710;DHT22;53624;0.000;0.000;2023-12-04T04:30:03;5.60;99.90
66710;DHT22;53624;0.000;0.000;2023-12-04T04:32:30;5.60;99.90
66710;DHT22;53624;0.000;0.000;2023-12-04T04:34:57;5.60;99.90
66710;DHT22;53624;0.000;0.000;2023-12-04T04:37:24;5.60;99.90
66710;DHT22;53624;0.000;0.000;2023-12-04T04:39:51;5.60;99.90
66710;DHT22;53624;0.000;0.000;2023-12-04T04:42:20;5.60;99.90
66710;DHT22;53624;0.000;0.000;2023-12-04T04:44:48;5.60;99.90
66710;DHT22;53624;0.000;0.000;2023-12-04T04:47:15;5.60;99.90
66710;DHT22;53624;0.000;0.000;2023-12-04T04:49:42;5.60;99.90
66710;DHT22;53624;0.000;0.000;2023-12-04T04:52:09;5.60;99.90
66710;DHT22;53624;0.000;0.000;2023-12-04T04:54:36;5.60;99.90
66710;DHT22;53624;0.000;0.000;2023-12-04T04:57:03;5.60;99.90
66710;DHT22;53624;0.000;0.000;2023-12-04T04:59:32;5.60;99.90
66710;DHT22;53624;0.000;0.000;2023-12-04T05:01:59;5.60;99.90
66710;DHT22;53624;0.000;0.000;2023-12-04T05:04:26;5.60;99.90
66710;DHT22;53624;0.000;0.000;2023-12-04T05:06:53;5.60;99.90
66710;DHT22;53624;0.000;0.000;2023-12-04T05:09:20;5.60;99.90
66710;DHT22;53624;0.000;0.000;2023-12-04T05:11:48;5.60;99.90
66710;DHT22;53624;0.000;0.000;2023-12-04T05:14:15;5.60;99.90
66710;DHT22;53624;0.000;0.000;2023-12-04T05:16:43;5.60;99.90
66710;DHT22;53624;0.000;0.000;2023-12-04T05:19:10;5.60;99.90
66710;DHT22;53624;0.000;0.000;2023-12-04T05:21:38;5.60;99.90
66710;DHT22;53624;0.000;0.000;2023-12-04T05:24:05;5.60;99.90
66710;DHT22;53624;0.000;0.000;2023-12-04T05:26:32;5.60;99.90
66710;DHT22;53624;0.000;0.000;2023-12-04T05:28:59;5.60;99.90
66710;DHT22;53624;0.000;0.000;2023-12-04T05:31:26;5.60;99.90
66710;DHT22;53624;0.000;0.000;2023-12-04T05:33:55;5.60;99.90
66710;DHT22;53624;0.000;0.000;2023-12-04T05:36:22;5.60;99.90
66710;DHT22;53624;0.000;0.000;2023-12-04T05:38:49;5.60;99.90
66710;DHT22;53624;0.000;0.000;2023-12-04T05:41:19;5.60;99.90
66710;DHT22;53624;0.000;0.000;2023-12-04T05:43:46;5.60;99.90
66710;DHT22;53624;0.000;0.000;2023-12-04T05:46:13;5.60;99.90
66710;DHT22;53624;0.000;0.000;2023-12-04T05:48:40;5.60;99.90
66710;DHT22;53624;0.000;0.000;2023-12-04T05:51:09;5.60;99.90
66710;DHT22;53624;0.000;0.000;2023-12-04T05:53:37;5.60;99.90
66710;DHT22;53624;0.000;0.000;2023-12-04T05:56:04;5.60;99.90
66710;DHT22;53624;0.000;0.000;2023-12-04T05:58:32;5.60;99.90
66710;DHT22;53624;0.000;0.000;2023-12-04T06:00:59;5.60;99.90
66710;DHT22;53624;0.000;0.000;2023-12-04T06:03:26;5.60;99.90
66710;DHT22;53624;0.000;0.000;2023-12-04T06:05:53;5.60;99.90
66710;DHT22;53624;0.000;0.000;2023-12-04T06:08:22;5.60;99.90
66710;DHT22;53624;0.000;0.000;2023-12-04T06:10:49;5.60;99.90
66710;DHT22;53624;0.000;0.000;2023-12-04T06:13:16;5.50;99.90
66710;DHT22;53624;0.000;0.000;2023-12-04T06:15:43;5.60;99.90
66710;DHT22;53624;0.000;0.000;2023-12-04T06:18:10;5.50;99.90
66710;DHT22;53624;0.000;0.000;2023-12-04T06:20:38;5.60;99.90
66710;DHT22;53624;0.000;0.000;2023-12-04T06:23:05;5.50;99.90
66710;DHT22;53624;0.000;0.000;2023-12-04T06:25:34;5.60;99.90
66710;DHT22;53624;0.000;0.000;2023-12-04T06:28:01;5.50;99.90
66710;DHT22;53624;0.000;0.000;2023-12-04T06:30:29;5.50;99.90
66710;DHT22;53624;0.000;0.000;2023-12-04T06:32:56;5.50;99.90
66710;DHT22;53624;0.000;0.000;2023-12-04T06:35:24;5.50;99.90
66710;DHT22;53624;0.000;0.000;2023-12-04T06:37:51;5.50;99.90
66710;DHT22;53624;0.000;0.000;2023-12-04T06:40:20;5.50;99.90
66710;DHT22;53624;0.000;0.000;2023-12-04T06:42:50;5.50;99.90
66710;DHT22;53624;0.000;0.000;2023-12-04T06:45:17;5.50;99.90
66710;DHT22;53624;0.000;0.000;2023-12-04T06:47:45;5.50;99.90
66710;DHT22;53624;0.000;0.000;2023-12-04T06:50:12;5.50;99.90
66710;DHT22;53624;0.000;0.000;2023-12-04T06:52:39;5.50;99.90
66710;DHT22;53624;0.000;0.000;2023-12-04T06:55:07;5.60;99.90
66710;DHT22;53624;0.000;0.000;2023-12-04T06:57:35;5.60;99.90
66710;DHT22;53624;0.000;0.000;2023-12-04T07:00:04;5.60;99.90
66710;DHT22;53624;0.000;0.000;2023-12-04T07:02:32;5.50;99.90
66710;DHT22;53624;0.000;0.000;2023-12-04T07:04:59;5.60;99.90
66710;DHT22;53624;0.000;0.000;2023-12-04T07:07:28;5.60;99.90
66710;DHT22;53624;0.000;0.000;2023-12-04T07:09:56;5.60;99.90
66710;DHT22;53624;0.000;0.000;2023-12-04T07:12:23;5.50;99.90
66710;DHT22;53624;0.000;0.000;2023-12-04T07:14:50;5.60;99.90
66710;DHT22;53624;0.000;0.000;2023-12-04T07:17:19;5.60;99.90
66710;DHT22;53624;0.000;0.000;2023-12-04T07:19:46;5.60;99.90
66710;DHT22;53624;0.000;0.000;2023-12-04T07:22:13;5.60;99.90
66710;DHT22;53624;0.000;0.000;2023-12-04T07:24:40;5.60;99.90
66710;DHT22;53624;0.000;0.000;2023-12-04T07:27:07;5.60;99.90
66710;DHT22;53624;0.000;0.000;2023-12-04T07:29:35;5.60;99.90
66710;DHT22;53624;0.000;0.000;2023-12-04T07:32:04;5.60;99.90
66710;DHT22;53624;0.000;0.000;2023-12-04T07:34:32;5.60;99.90
66710;DHT22;53624;0.000;0.000;2023-12-04T07:37:00;5.60;99.90
66710;DHT22;53624;0.000;0.000;2023-12-04T07:39:27;5.60;99.90
66710;DHT22;53624;0.000;0.000;2023-12-04T07:41:54;5.60;99.90
66710;DHT22;53624;0.000;0.000;2023-12-04T07:44:21;5.60;99.90
66710;DHT22;53624;0.000;0.000;2023-12-04T07:46:48;5.60;99.90
66710;DHT22;53624;0.000;0.000;2023-12-04T07:49:16;5.60;99.90
66710;DHT22;53624;0.000;0.000;2023-12-04T07:51:44;5.60;99.90
66710;DHT22;53624;0.000;0.000;2023-12-04T07:54:11;5.60;99.90
66710;DHT22;53624;0.000;0.000;2023-12-04T07:56:38;5.60;99.90
66710;DHT22;53624;0.000;0.000;2023-12-04T07:59:05;5.60;99.90
66710;DHT22;53624;0.000;0.000;2023-12-04T08:01:33;5.60;99.90
66710;DHT22;53624;0.000;0.000;2023-12-04T08:04:00;5.60;99.90
66710;DHT22;53624;0.000;0.000;2023-12-04T08:06:28;5.60;99.90
66710;DHT22;53624;0.000;0.000;2023-12-04T08:08:57;5.60;99.90
66710;DHT22;53624;0.000;0.000;2023-12-04T08:11:25;5.60;99.90
66710;DHT22;53624;0.000;0.000;2023-12-04T08:13:52;5.70;99.90
66710;DHT22;53624;0.000;0.000;2023-12-04T08:16:19;5.70;99.90
66710;DHT22;53624;0.000;0.000;2023-12-04T08:18:46;5.70;99.90
66710;DHT22;53624;0.000;0.000;2023-12-04T08:21:14;5.70;99.90
66710;DHT22;53624;0.000;0.000;2023-12-04T08:23:41;5.70;99.90
66710;DHT22;53624;0.000;0.000;2023-12-04T08:26:09;5.70;99.90
66710;DHT22;53624;0.000;0.000;2023-12-04T08:28:36;5.70;99.90
66710;DHT22;53624;0.000;0.000;2023-12-04T08:31:07;5.70;99.90
66710;DHT22;53624;0.000;0.000;2023-12-04T08:33:35;5.70;99.90
66710;DHT22;53624;0.000;0.000;2023-12-04T08:36:02;5.70;99.90
66710;DHT22;53624;0.000;0.000;2023-12-04T08:38:29;5.70;99.90
66710;DHT22;53624;0.000;0.000;2023-12-04T08:40:56;5.80;99.90
66710;DHT22;53624;0.000;0.000;2023-12-04T08:43:25;5.80;99.90
66710;DHT22;53624;0.000;0.000;2023-12-04T08:45:52;5.80;99.90
66710;DHT22;53624;0.000;0.000;2023-12-04T08:48:19;5.80;99.90
66710;DHT22;53624;0.000;0.000;2023-12-04T08:50:46;5.90;99.90
66710;DHT22;53624;0.000;0.000;2023-12-04T08:53:14;5.80;99.90
66710;DHT22;53624;0.000;0.000;2023-12-04T08:55:41;5.90;99.90
66710;DHT22;53624;0.000;0.000;2023-12-04T08:58:08;5.90;99.90
66710;DHT22;53624;0.000;0.000;2023-12-04T09:00:38;5.90;99.90
66710;DHT22;53624;0.000;0.000;2023-12-04T09:03:08;5.90;99.90
66710;DHT22;53624;0.000;0.000;2023-12-04T09:05:36;5.90;99.90
66710;DHT22;53624;0.000;0.000;2023-12-04T09:08:03;5.90;99.90
66710;DHT22;53624;0.000;0.000;2023-12-04T09:10:30;5.90;99.90
66710;DHT22;53624;0.000;0.000;2023-12-04T09:12:57;6.00;99.90
66710;DHT22;53624;0.000;0.000;2023-12-04T09:15:25;6.00;99.90
66710;DHT22;53624;0.000;0.000;2023-12-04T09:17:53;6.00;99.90
66710;DHT22;53624;0.000;0.000;2023-12-04T09:20:21;6.00;99.90
66710;DHT22;53624;0.000;0.000;2023-12-04T09:22:49;6.00;99.90
66710;DHT22;53624;0.000;0.000;2023-12-04T09:25:16;6.00;99.90
66710;DHT22;53624;0.000;0.000;2023-12-04T09:27:43;6.00;99.90
66710;DHT22;53624;0.000;0.000;2023-12-04T09:30:11;6.10;99.90
66710;DHT22;53624;0.000;0.000;2023-12-04T09:32:39;6.10;99.90
66710;DHT22;53624;0.000;0.000;2023-12-04T09:35:08;6.10;99.90
66710;DHT22;53624;0.000;0.000;2023-12-04T09:37:36;6.10;99.90
66710;DHT22;53624;0.000;0.000;2023-12-04T09:40:03;6.10;99.90
66710;DHT22;53624;0.000;0.000;2023-12-04T09:42:31;6.10;99.90
66710;DHT22;53624;0.000;0.000;2023-12-04T09:44:58;6.10;99.90
66710;DHT22;53624;0.000;0.000;2023-12-04T09:47:27;6.10;99.90
66710;DHT22;53624;0.000;0.000;2023-12-04T09:49:55;6.20;99.90
66710;DHT22;53624;0.000;0.000;2023-12-04T09:52:24;6.10;99.90
66710;DHT22;53624;0.000;0.000;2023-12-04T09:54:52;6.20;99.90
66710;DHT22;53624;0.000;0.000;2023-12-04T09:57:19;6.20;99.90
66710;DHT22;53624;0.000;0.000;2023-12-04T09:59:48;6.20;99.90
66710;DHT22;53624;0.000;0.000;2023-12-04T10:02:16;6.20;99.90
66710;DHT22;53624;0.000;0.000;2023-12-04T10:04:43;6.20;99.90
66710;DHT22;53624;0.000;0.000;2023-12-04T10:07:11;6.30;99.90
66710;DHT22;53624;0.000;0.000;2023-12-04T10:09:40;6.30;99.90
66710;DHT22;53624;0.000;0.000;2023-12-04T10:12:07;6.30;99.90
66710;DHT22;53624;0.000;0.000;2023-12-04T10:14:34;6.30;99.90
66710;DHT22;53624;0.000;0.000;2023-12-04T10:17:12;6.30;99.90
66710;DHT22;53624;0.000;0.000;2023-12-04T10:19:40;6.30;99.90
66710;DHT22;53624;0.000;0.000;2023-12-04T10:22:07;6.40;99.90
66710;DHT22;53624;0.000;0.000;2023-12-04T10:24:36;6.40;99.90
66710;DHT22;53624;0.000;0.000;2023-12-04T10:27:06;6.40;99.90
66710;DHT22;53624;0.000;0.000;2023-12-04T10:29:42;6.40;99.90
66710;DHT22;53624;0.000;0.000;2023-12-04T10:32:09;6.40;99.90
66710;DHT22;53624;0.000;0.000;2023-12-04T10:34:37;6.50;99.90
66710;DHT22;53624;0.000;0.000;2023-12-04T10:37:04;6.50;99.90
66710;DHT22;53624;0.000;0.000;2023-12-04T10:39:33;6.50;99.90
66710;DHT22;53624;0.000;0.000;2023-12-04T10:42:23;6.50;99.90
66710;DHT22;53624;0.000;0.000;2023-12-04T10:44:51;6.60;99.90
66710;DHT22;53624;0.000;0.000;2023-12-04T10:47:19;6.60;99.90
66710;DHT22;53624;0.000;0.000;2023-12-04T10:49:47;6.60;99.90
66710;DHT22;53624;0.000;0.000;2023-12-04T10:52:15;6.60;99.90
66710;DHT22;53624;0.000;0.000;2023-12-04T10:54:42;6.60;99.90
66710;DHT22;53624;0.000;0.000;2023-12-04T10:57:10;6.60;99.90
66710;DHT22;53624;0.000;0.000;2023-12-04T10:59:39;6.60;99.90
66710;DHT22;53624;0.000;0.000;2023-12-04T11:02:07;6.60;99.90
66710;DHT22;53624;0.000;0.000;2023-12-04T11:04:39;6.60;99.90
66710;DHT22;53624;0.000;0.000;2023-12-04T11:07:07;6.60;99.90
66710;DHT22;53624;0.000;0.000;2023-12-04T11:09:36;6.70;99.90
66710;DHT22;53624;0.000;0.000;2023-12-04T11:12:06;6.70;99.90
66710;DHT22;53624;0.000;0.000;2023-12-04T11:14:37;6.70;99.90
66710;DHT22;53624;0.000;0.000;2023-12-04T11:17:08;6.70;99.90
66710;DHT22;53624;0.000;0.000;2023-12-04T11:19:38;6.70;99.90
66710;DHT22;53624;0.000;0.000;2023-12-04T11:22:07;6.80;99.90
66710;DHT22;53624;0.000;0.000;2023-12-04T11:24:34;6.80;99.90
66710;DHT22;53624;0.000;0.000;2023-12-04T11:27:02;6.80;99.90
66710;DHT22;53624;0.000;0.000;2023-12-04T11:29:30;6.80;99.90
66710;DHT22;53624;0.000;0.000;2023-12-04T11:31:59;6.80;99.90
66710;DHT22;53624;0.000;0.000;2023-12-04T11:34:27;6.80;99.90
66710;DHT22;53624;0.000;0.000;2023-12-04T11:36:54;6.80;99.90
66710;DHT22;53624;0.000;0.000;2023-12-04T11:39:22;6.80;99.90
66710;DHT22;53624;0.000;0.000;2023-12-04T11:41:49;6.90;99.90
66710;DHT22;53624;0.000;0.000;2023-12-04T11:44:17;6.90;99.90
66710;DHT22;53624;0.000;0.000;2023-12-04T11:46:54;6.90;99.90
66710;DHT22;53624;0.000;0.000;2023-12-04T11:49:26;6.90;99.90
66710;DHT22;53624;0.000;0.000;2023-12-04T11:51:56;6.90;99.90
66710;DHT22;53624;0.000;0.000;2023-12-04T11:54:24;6.90;99.90
66710;DHT22;53624;0.000;0.000;2023-12-04T11:59:43;6.90;99.90
66710;DHT22;53624;0.000;0.000;2023-12-04T12:02:10;6.90;99.90
66710;DHT22;53624;0.000;0.000;2023-12-04T12:04:38;6.90;99.90
66710;DHT22;53624;0.000;0.000;2023-12-04T12:07:06;6.90;99.90
66710;DHT22;53624;0.000;0.000;2023-12-04T12:09:33;6.90;99.90
66710;DHT22;53624;0.000;0.000;2023-12-04T12:12:01;6.90;99.90
66710;DHT22;53624;0.000;0.000;2023-12-04T12:14:28;6.90;99.90
66710;DHT22;53624;0.000;0.000;2023-12-04T12:16:57;6.90;99.90
66710;DHT22;53624;0.000;0.000;2023-12-04T12:19:25;6.90;99.90
66710;DHT22;53624;0.000;0.000;2023-12-04T12:21:53;6.90;99.90
66710;DHT22;53624;0.000;0.000;2023-12-04T12:24:22;6.90;99.90
66710;DHT22;53624;0.000;0.000;2023-12-04T12:26:50;7.00;99.90
66710;DHT22;53624;0.000;0.000;2023-12-04T12:29:17;7.00;99.90
66710;DHT22;53624;0.000;0.000;2023-12-04T12:31:44;7.00;99.90
66710;DHT22;53624;0.000;0.000;2023-12-04T12:34:13;7.00;99.90
66710;DHT22;53624;0.000;0.000;2023-12-04T12:36:40;7.00;99.90
66710;DHT22;53624;0.000;0.000;2023-12-04T12:39:07;7.00;99.90
66710;DHT22;53624;0.000;0.000;2023-12-04T12:41:36;7.00;99.90
66710;DHT22;53624;0.000;0.000;2023-12-04T12:44:03;7.00;99.90
66710;DHT22;53624;0.000;0.000;2023-12-04T12:46:31;7.00;99.90
66710;DHT22;53624;0.000;0.000;2023-12-04T12:49:00;7.00;99.90
66710;DHT22;53624;0.000;0.000;2023-12-04T12:51:27;7.00;99.90
66710;DHT22;53624;0.000;0.000;2023-12-04T12:53:56;7.00;99.90
66710;DHT22;53624;0.000;0.000;2023-12-04T12:56:24;7.00;99.90
66710;DHT22;53624;0.000;0.000;2023-12-04T12:58:53;7.00;99.90
66710;DHT22;53624;0.000;0.000;2023-12-04T13:01:22;7.00;99.90
66710;DHT22;53624;0.000;0.000;2023-12-04T13:03:51;7.00;99.90
66710;DHT22;53624;0.000;0.000;2023-12-04T13:06:18;7.00;99.90
66710;DHT22;53624;0.000;0.000;2023-12-04T13:08:45;7.00;99.90
66710;DHT22;53624;0.000;0.000;2023-12-04T13:11:12;7.00;99.90
66710;DHT22;53624;0.000;0.000;2023-12-04T13:13:39;7.00;99.90
66710;DHT22;53624;0.000;0.000;2023-12-04T13:16:09;7.00;99.90
66710;DHT22;53624;0.000;0.000;2023-12-04T13:18:37;7.00;99.90
66710;DHT22;53624;0.000;0.000;2023-12-04T13:21:04;7.00;99.90
66710;DHT22;53624;0.000;0.000;2023-12-04T13:23:31;7.00;99.90
66710;DHT22;53624;0.000;0.000;2023-12-04T13:25:59;7.10;99.90
66710;DHT22;53624;0.000;0.000;2023-12-04T13:28:26;7.10;99.90
66710;DHT22;53624;0.000;0.000;2023-12-04T13:30:53;7.10;99.90
66710;DHT22;53624;0.000;0.000;2023-12-04T13:33:22;7.10;99.90
66710;DHT22;53624;0.000;0.000;2023-12-04T13:35:50;7.10;99.90
66710;DHT22;53624;0.000;0.000;2023-12-04T13:38:17;7.10;99.90
66710;DHT22;53624;0.000;0.000;2023-12-04T13:40:45;7.10;99.90
66710;DHT22;53624;0.000;0.000;2023-12-04T13:43:25;7.10;99.90
66710;DHT22;53624;0.000;0.000;2023-12-04T13:46:10;7.10;99.90
66710;DHT22;53624;0.000;0.000;2023-12-04T13:48:39;7.10;99.90
66710;DHT22;53624;0.000;0.000;2023-12-04T13:51:06;7.10;99.90
66710;DHT22;53624;0.000;0.000;2023-12-04T13:53:34;7.10;99.90
66710;DHT22;53624;0.000;0.000;2023-12-04T13:56:01;7.10;99.90
66710;DHT22;53624;0.000;0.000;2023-12-04T13:58:50;7.10;99.90
66710;DHT22;53624;0.000;0.000;2023-12-04T14:01:22;7.10;99.90
66710;DHT22;53624;0.000;0.000;2023-12-04T14:03:51;7.10;99.90
66710;DHT22;53624;0.000;0.000;2023-12-04T14:06:19;7.10;99.90
66710;DHT22;53624;0.000;0.000;2023-12-04T14:08:46;7.10;99.90
66710;DHT22;53624;0.000;0.000;2023-12-04T14:11:13;7.10;99.90
66710;DHT22;53624;0.000;0.000;2023-12-04T14:13:41;7.10;99.90
66710;DHT22;53624;0.000;0.000;2023-12-04T14:16:09;7.20;99.90
66710;DHT22;53624;0.000;0.000;2023-12-04T14:18:36;7.10;99.90
66710;DHT22;53624;0.000;0.000;2023-12-04T14:21:05;7.10;99.90
66710;DHT22;53624;0.000;0.000;2023-12-04T14:23:32;7.20;99.90
66710;DHT22;53624;0.000;0.000;2023-12-04T14:26:00;7.20;99.90
66710;DHT22;53624;0.000;0.000;2023-12-04T14:28:27;7.20;99.90
66710;DHT22;53624;0.000;0.000;2023-12-04T14:30:54;7.20;99.90
66710;DHT22;53624;0.000;0.000;2023-12-04T14:33:22;7.20;99.90
66710;DHT22;53624;0.000;0.000;2023-12-04T14:35:49;7.20;99.90
66710;DHT22;53624;0.000;0.000;2023-12-04T14:38:18;7.20;99.90
66710;DHT22;53624;0.000;0.000;2023-12-04T14:40:45;7.20;99.90
66710;DHT22;53624;0.000;0.000;2023-12-04T14:43:12;7.20;99.90
66710;DHT22;53624;0.000;0.000;2023-12-04T14:45:39;7.20;99.90
66710;DHT22;53624;0.000;0.000;2023-12-04T14:48:06;7.20;99.90
66710;DHT22;53624;0.000;0.000;2023-12-04T14:50:33;7.20;99.90
66710;DHT22;53624;0.000;0.000;2023-12-04T14:53:01;7.20;99.90
66710;DHT22;53624;0.000;0.000;2023-12-04T14:55:43;7.20;99.90
66710;DHT22;53624;0.000;0.000;2023-12-04T14:58:42;7.20;99.90
66710;DHT22;53624;0.000;0.000;2023-12-04T15:01:29;7.20;99.90
66710;DHT22;53624;0.000;0.000;2023-12-04T15:04:19;7.20;99.90
66710;DHT22;53624;0.000;0.000;2023-12-04T15:07:12;7.20;99.90
66710;DHT22;53624;0.000;0.000;2023-12-04T15:10:12;7.30;99.90
66710;DHT22;53624;0.000;0.000;2023-12-04T15:12:54;7.30;99.90
66710;DHT22;53624;0.000;0.000;2023-12-04T15:15:59;7.30;99.90
66710;DHT22;53624;0.000;0.000;2023-12-04T15:18:42;7.30;99.90
66710;DHT22;53624;0.000;0.000;2023-12-04T15:21:26;7.30;99.90
66710;DHT22;53624;0.000;0.000;2023-12-04T15:23:53;7.30;99.90
66710;DHT22;53624;0.000;0.000;2023-12-04T15:26:20;7.30;99.90
66710;DHT22;53624;0.000;0.000;2023-12-04T15:28:47;7.30;99.90
66710;DHT22;53624;0.000;0.000;2023-12-04T15:31:15;7.30;99.90
66710;DHT22;53624;0.000;0.000;2023-12-04T15:33:41;7.30;99.90
66710;DHT22;53624;0.000;0.000;2023-12-04T15:36:08;7.30;99.90
66710;DHT22;53624;0.000;0.000;2023-12-04T15:38:36;7.30;99.90
66710;DHT22;53624;0.000;0.000;2023-12-04T15:41:02;7.30;99.90
66710;DHT22;53624;0.000;0.000;2023-12-04T15:43:30;7.30;99.90
66710;DHT22;53624;0.000;0.000;2023-12-04T15:45:57;7.30;99.90
66710;DHT22;53624;0.000;0.000;2023-12-04T15:48:24;7.30;99.90
66710;DHT22;53624;0.000;0.000;2023-12-04T15:50:51;7.30;99.90
66710;DHT22;53624;0.000;0.000;2023-12-04T15:53:19;7.20;99.90
66710;DHT22;53624;0.000;0.000;2023-12-04T15:55:45;7.20;99.90
66710;DHT22;53624;0.000;0.000;2023-12-04T15:58:12;7.20;99.90
66710;DHT22;53624;0.000;0.000;2023-12-04T16:00:38;7.20;99.90
66710;DHT22;53624;0.000;0.000;2023-12-04T16:03:07;7.20;99.90
66710;DHT22;53624;0.000;0.000;2023-12-04T16:05:33;7.20;99.90
66710;DHT22;53624;0.000;0.000;2023-12-04T16:08:01;7.20;99.90
66710;DHT22;53624;0.000;0.000;2023-12-04T16:10:28;7.20;99.90
66710;DHT22;53624;0.000;0.000;2023-12-04T16:12:55;7.20;99.90